createdAt,value
2022-07-29T00:00:48.470Z,17.14
2022-07-29T00:01:48.428Z,17.17
2022-07-29T00:02:48.437Z,17.25
2022-07-29T00:03:48.490Z,17.35
2022-07-29T00:04:48.364Z,17.41
2022-07-29T00:05:48.340Z,17.36
2022-07-29T00:06:48.332Z,17.41
2022-07-29T00:07:48.301Z,17.32
2022-07-29T00:08:48.291Z,17.41
2022-07-29T00:09:51.733Z,17.48
2022-07-29T00:10:48.248Z,17.70
2022-07-29T00:11:48.229Z,17.66
2022-07-29T00:12:48.217Z,17.78
2022-07-29T00:13:51.054Z,17.79
2022-07-29T00:14:48.228Z,17.84
2022-07-29T00:15:48.152Z,17.87
2022-07-29T00:16:48.241Z,17.92
2022-07-29T00:17:48.118Z,17.91
2022-07-29T00:18:48.105Z,17.95
2022-07-29T00:19:48.088Z,17.97
2022-07-29T00:20:48.059Z,18.03
2022-07-29T00:21:48.043Z,18.00
2022-07-29T00:22:48.024Z,17.99
2022-07-29T00:23:48.008Z,18.03
2022-07-29T00:24:47.995Z,18.02
2022-07-29T00:25:47.976Z,18.00
2022-07-29T00:26:47.953Z,17.95
2022-07-29T00:27:47.938Z,17.92
2022-07-29T00:28:47.911Z,17.95
2022-07-29T00:29:47.892Z,17.89
2022-07-29T00:30:47.902Z,18.00
2022-07-29T00:31:47.921Z,18.02
2022-07-29T00:32:47.841Z,17.97
2022-07-29T00:33:47.823Z,18.00
2022-07-29T00:34:47.802Z,18.03
2022-07-29T00:35:47.784Z,18.04
2022-07-29T00:36:47.764Z,18.07
2022-07-29T00:37:47.751Z,18.04
2022-07-29T00:38:47.748Z,18.00
2022-07-29T00:39:47.711Z,17.99
2022-07-29T00:40:47.695Z,17.99
2022-07-29T00:41:47.677Z,17.92
2022-07-29T00:42:47.665Z,17.87
2022-07-29T00:43:47.640Z,17.97
2022-07-29T00:44:47.623Z,17.91
2022-07-29T00:45:47.601Z,17.81
2022-07-29T00:46:47.638Z,17.88
2022-07-29T00:47:47.589Z,17.88
2022-07-29T00:48:47.581Z,17.85
2022-07-29T00:49:47.524Z,17.89
2022-07-29T00:50:47.509Z,17.81
2022-07-29T00:51:47.501Z,17.79
2022-07-29T00:52:47.474Z,17.92
2022-07-29T00:53:47.460Z,17.88
2022-07-29T00:54:47.457Z,17.91
2022-07-29T00:55:47.421Z,17.85
2022-07-29T00:56:47.396Z,17.76
2022-07-29T00:57:47.381Z,17.81
2022-07-29T00:58:47.418Z,17.74
2022-07-29T00:59:47.367Z,17.73
2022-07-29T01:00:47.382Z,17.69
2022-07-29T01:01:47.370Z,17.69
2022-07-29T01:02:47.300Z,17.67
2022-07-29T01:03:47.277Z,17.59
2022-07-29T01:04:47.252Z,17.66
2022-07-29T01:05:51.077Z,17.71
2022-07-29T01:06:47.216Z,17.66
2022-07-29T01:07:47.222Z,17.69
2022-07-29T01:08:47.212Z,17.69
2022-07-29T01:09:47.361Z,17.67
2022-07-29T01:10:47.162Z,17.62
2022-07-29T01:11:47.129Z,17.66
2022-07-29T01:12:47.108Z,17.62
2022-07-29T01:13:47.082Z,17.63
2022-07-29T01:14:47.092Z,17.57
2022-07-29T01:15:48.956Z,17.73
2022-07-29T01:16:47.085Z,17.84
2022-07-29T01:17:53.171Z,18.02
2022-07-29T01:18:47.012Z,18.00
2022-07-29T01:19:47.019Z,18.15
2022-07-29T01:20:46.966Z,18.17
2022-07-29T01:21:46.943Z,18.19
2022-07-29T01:22:46.995Z,18.13
2022-07-29T01:23:46.910Z,18.18
2022-07-29T01:24:46.892Z,18.03
2022-07-29T01:25:46.876Z,18.03
2022-07-29T01:26:46.872Z,17.94
2022-07-29T01:27:46.840Z,17.92
2022-07-29T01:28:46.813Z,17.82
2022-07-29T01:29:46.798Z,17.67
2022-07-29T01:30:46.789Z,17.67
2022-07-29T01:31:58.531Z,17.64
2022-07-29T01:32:46.765Z,17.48
2022-07-29T01:33:46.732Z,17.51
2022-07-29T01:34:46.714Z,17.35
2022-07-29T01:35:46.691Z,17.40
2022-07-29T01:36:46.656Z,17.38
2022-07-29T01:37:46.648Z,17.17
2022-07-29T01:38:46.648Z,17.14
2022-07-29T01:39:46.604Z,16.99
2022-07-29T01:40:46.591Z,17.03
2022-07-29T01:41:46.576Z,16.86
2022-07-29T01:42:46.573Z,16.85
2022-07-29T01:43:46.533Z,16.74
2022-07-29T01:44:46.514Z,16.71
2022-07-29T01:45:46.498Z,16.62
2022-07-29T01:46:46.582Z,16.55
2022-07-29T01:47:46.458Z,16.48
2022-07-29T01:48:46.473Z,16.38
2022-07-29T01:49:46.436Z,16.42
2022-07-29T01:50:46.420Z,16.38
2022-07-29T01:51:46.420Z,16.37
2022-07-29T01:52:46.387Z,16.27
2022-07-29T01:53:46.347Z,16.31
2022-07-29T01:54:46.699Z,16.30
2022-07-29T01:55:46.312Z,16.25
2022-07-29T01:56:46.326Z,16.27
2022-07-29T01:57:46.277Z,16.20
2022-07-29T01:58:46.246Z,16.23
2022-07-29T01:59:46.227Z,16.23
2022-07-29T02:00:46.209Z,16.16
2022-07-29T02:01:46.246Z,16.14
2022-07-29T02:02:46.493Z,16.09
2022-07-29T02:03:46.153Z,16.09
2022-07-29T02:04:46.214Z,16.06
2022-07-29T02:05:46.141Z,15.99
2022-07-29T02:06:46.094Z,15.97
2022-07-29T02:07:46.071Z,15.85
2022-07-29T02:08:46.064Z,15.88
2022-07-29T02:09:46.049Z,15.86
2022-07-29T02:10:46.010Z,15.84
2022-07-29T02:11:45.995Z,15.79
2022-07-29T02:12:48.556Z,15.68
2022-07-29T02:13:45.971Z,15.76
2022-07-29T02:14:45.940Z,15.66
2022-07-29T02:15:46.025Z,15.56
2022-07-29T02:16:45.906Z,15.67
2022-07-29T02:17:45.884Z,15.72
2022-07-29T02:18:45.863Z,15.82
2022-07-29T02:19:45.854Z,15.81
2022-07-29T02:20:45.856Z,15.89
2022-07-29T02:21:45.807Z,15.92
2022-07-29T02:22:45.807Z,15.85
2022-07-29T02:23:50.852Z,15.79
2022-07-29T02:24:45.746Z,15.76
2022-07-29T02:25:45.717Z,15.74
2022-07-29T02:26:45.704Z,15.79
2022-07-29T02:27:45.697Z,15.78
2022-07-29T02:28:45.658Z,15.78
2022-07-29T02:29:45.645Z,15.84
2022-07-29T02:30:45.686Z,15.82
2022-07-29T02:31:45.602Z,15.85
2022-07-29T02:32:45.581Z,15.84
2022-07-29T02:33:45.564Z,15.79
2022-07-29T02:34:45.543Z,15.86
2022-07-29T02:35:45.538Z,15.78
2022-07-29T02:36:45.507Z,15.76
2022-07-29T02:37:45.487Z,15.78
2022-07-29T02:38:45.466Z,15.78
2022-07-29T02:39:45.478Z,15.74
2022-07-29T02:40:45.426Z,15.67
2022-07-29T02:41:45.407Z,15.70
2022-07-29T02:42:45.388Z,15.66
2022-07-29T02:43:45.364Z,15.59
2022-07-29T02:44:45.360Z,15.56
2022-07-29T02:45:45.323Z,15.54
2022-07-29T02:46:45.348Z,15.56
2022-07-29T02:47:45.287Z,15.48
2022-07-29T02:48:45.311Z,15.46
2022-07-29T02:49:45.278Z,15.59
2022-07-29T02:50:45.228Z,15.48
2022-07-29T02:51:45.254Z,15.49
2022-07-29T02:52:45.187Z,15.51
2022-07-29T02:53:45.180Z,15.42
2022-07-29T02:54:45.144Z,15.46
2022-07-29T02:55:45.125Z,15.39
2022-07-29T02:56:45.110Z,15.42
2022-07-29T02:57:54.831Z,15.33
2022-07-29T02:58:45.070Z,15.27
2022-07-29T02:59:45.059Z,15.33
2022-07-29T03:00:45.031Z,15.39
2022-07-29T03:01:45.074Z,15.31
2022-07-29T03:02:44.993Z,15.27
2022-07-29T03:03:44.981Z,15.24
2022-07-29T03:04:44.996Z,15.13
2022-07-29T03:05:44.931Z,15.20
2022-07-29T03:06:44.909Z,15.13
2022-07-29T03:07:44.892Z,15.05
2022-07-29T03:08:44.869Z,15.03
2022-07-29T03:09:44.849Z,14.88
2022-07-29T03:10:44.849Z,14.98
2022-07-29T03:11:50.616Z,14.88
2022-07-29T03:12:44.790Z,14.91
2022-07-29T03:13:44.773Z,14.86
2022-07-29T03:14:44.753Z,14.83
2022-07-29T03:15:44.799Z,14.81
2022-07-29T03:16:44.774Z,14.81
2022-07-29T03:17:44.695Z,14.81
2022-07-29T03:18:44.673Z,14.87
2022-07-29T03:19:44.658Z,14.81
2022-07-29T03:20:44.627Z,14.86
2022-07-29T03:21:44.608Z,14.80
2022-07-29T03:22:44.592Z,14.80
2022-07-29T03:23:44.574Z,14.75
2022-07-29T03:24:44.543Z,14.78
2022-07-29T03:25:44.526Z,14.75
2022-07-29T03:26:44.549Z,14.80
2022-07-29T03:27:44.489Z,14.84
2022-07-29T03:28:44.466Z,14.87
2022-07-29T03:29:49.658Z,14.86
2022-07-29T03:30:44.532Z,14.75
2022-07-29T03:31:44.410Z,14.78
2022-07-29T03:32:44.383Z,14.68
2022-07-29T03:33:44.362Z,14.71
2022-07-29T03:34:44.343Z,14.65
2022-07-29T03:35:44.325Z,14.60
2022-07-29T03:36:44.311Z,14.57
2022-07-29T03:37:44.287Z,14.50
2022-07-29T03:38:44.318Z,14.52
2022-07-29T03:39:44.245Z,14.37
2022-07-29T03:40:44.225Z,14.42
2022-07-29T03:41:44.207Z,14.43
2022-07-29T03:42:44.178Z,14.44
2022-07-29T03:43:49.603Z,14.39
2022-07-29T03:44:44.141Z,14.42
2022-07-29T03:45:44.133Z,14.43
2022-07-29T03:46:44.145Z,14.42
2022-07-29T03:47:50.570Z,14.50
2022-07-29T03:48:44.110Z,14.49
2022-07-29T03:49:44.059Z,14.38
2022-07-29T03:50:44.020Z,14.39
2022-07-29T03:51:43.998Z,14.42
2022-07-29T03:52:45.404Z,14.42
2022-07-29T03:53:43.956Z,14.35
2022-07-29T03:54:43.942Z,14.39
2022-07-29T03:55:43.915Z,14.43
2022-07-29T03:56:43.896Z,14.37
2022-07-29T03:57:43.877Z,14.28
2022-07-29T03:58:43.854Z,14.31
2022-07-29T03:59:43.834Z,14.21
2022-07-29T04:00:43.813Z,14.21
2022-07-29T04:01:43.878Z,14.14
2022-07-29T04:02:43.766Z,14.21
2022-07-29T04:03:43.794Z,14.24
2022-07-29T04:04:43.728Z,14.21
2022-07-29T04:05:43.704Z,14.28
2022-07-29T04:06:43.687Z,14.32
2022-07-29T04:07:43.664Z,14.29
2022-07-29T04:08:43.640Z,14.27
2022-07-29T04:09:43.623Z,14.28
2022-07-29T04:10:43.603Z,14.31
2022-07-29T04:12:01.684Z,14.29
2022-07-29T04:12:43.560Z,14.32
2022-07-29T04:13:43.546Z,14.38
2022-07-29T04:14:43.520Z,14.25
2022-07-29T04:15:43.563Z,14.17
2022-07-29T04:16:43.484Z,14.20
2022-07-29T04:17:43.460Z,14.21
2022-07-29T04:18:43.438Z,14.21
2022-07-29T04:19:43.413Z,14.21
2022-07-29T04:20:43.459Z,14.27
2022-07-29T04:21:43.379Z,14.27
2022-07-29T04:22:43.353Z,14.32
2022-07-29T04:23:49.381Z,14.28
2022-07-29T04:24:44.572Z,14.28
2022-07-29T04:25:43.291Z,14.24
2022-07-29T04:26:43.276Z,14.31
2022-07-29T04:27:43.263Z,14.31
2022-07-29T04:28:43.232Z,14.35
2022-07-29T04:29:56.302Z,14.38
2022-07-29T04:30:43.224Z,14.31
2022-07-29T04:31:43.296Z,14.42
2022-07-29T04:32:43.148Z,14.38
2022-07-29T04:33:43.144Z,14.39
2022-07-29T04:34:43.112Z,14.35
2022-07-29T04:35:47.175Z,14.42
2022-07-29T04:36:43.070Z,14.49
2022-07-29T04:37:43.062Z,14.49
2022-07-29T04:38:43.018Z,14.54
2022-07-29T04:39:43.001Z,14.50
2022-07-29T04:40:42.980Z,14.62
2022-07-29T04:41:43.014Z,14.60
2022-07-29T04:42:46.662Z,14.62
2022-07-29T04:43:42.919Z,14.72
2022-07-29T04:44:43.345Z,14.74
2022-07-29T04:45:42.879Z,14.80
2022-07-29T04:46:42.909Z,14.84
2022-07-29T04:47:42.844Z,14.87
2022-07-29T04:48:42.870Z,14.90
2022-07-29T04:49:42.800Z,15.06
2022-07-29T04:50:42.775Z,15.06
2022-07-29T04:51:42.755Z,15.08
2022-07-29T04:52:42.734Z,15.15
2022-07-29T04:53:42.712Z,15.12
2022-07-29T04:54:42.704Z,15.30
2022-07-29T04:55:42.673Z,15.35
2022-07-29T04:56:42.653Z,15.31
2022-07-29T04:57:42.646Z,15.46
2022-07-29T04:58:42.618Z,15.51
2022-07-29T04:59:42.587Z,15.49
2022-07-29T05:00:42.579Z,15.45
2022-07-29T05:01:42.642Z,15.41
2022-07-29T05:02:42.553Z,15.45
2022-07-29T05:03:42.513Z,15.49
2022-07-29T05:04:42.491Z,15.60
2022-07-29T05:05:42.471Z,15.54
2022-07-29T05:06:42.460Z,15.61
2022-07-29T05:07:42.450Z,15.59
2022-07-29T05:08:42.412Z,15.56
2022-07-29T05:09:42.389Z,15.43
2022-07-29T05:10:42.381Z,15.43
2022-07-29T05:11:42.376Z,15.33
2022-07-29T05:12:42.327Z,15.39
2022-07-29T05:13:45.957Z,15.35
2022-07-29T05:14:42.296Z,15.27
2022-07-29T05:15:42.294Z,15.27
2022-07-29T05:16:42.253Z,15.30
2022-07-29T05:17:42.253Z,15.38
2022-07-29T05:18:42.221Z,15.39
2022-07-29T05:19:42.197Z,15.35
2022-07-29T05:20:42.171Z,15.27
2022-07-29T05:21:42.151Z,15.35
2022-07-29T05:22:42.133Z,15.30
2022-07-29T05:23:42.112Z,15.42
2022-07-29T05:24:42.089Z,15.42
2022-07-29T05:25:44.737Z,15.42
2022-07-29T05:26:42.051Z,15.43
2022-07-29T05:27:42.045Z,15.43
2022-07-29T05:28:42.017Z,15.52
2022-07-29T05:29:43.889Z,15.59
2022-07-29T05:30:42.070Z,15.76
2022-07-29T05:31:41.952Z,15.66
2022-07-29T05:32:41.932Z,15.81
2022-07-29T05:33:41.914Z,15.88
2022-07-29T05:34:51.051Z,15.96
2022-07-29T05:35:41.876Z,16.00
2022-07-29T05:36:41.855Z,16.04
2022-07-29T05:37:41.844Z,16.18
2022-07-29T05:38:41.820Z,16.20
2022-07-29T05:39:48.453Z,16.30
2022-07-29T05:40:41.789Z,16.34
2022-07-29T05:41:41.761Z,16.42
2022-07-29T05:42:42.345Z,16.52
2022-07-29T05:43:41.718Z,16.62
2022-07-29T05:44:41.701Z,16.83
2022-07-29T05:45:49.902Z,16.95
2022-07-29T05:46:41.723Z,17.00
2022-07-29T05:47:41.688Z,16.99
2022-07-29T05:48:41.724Z,17.11
2022-07-29T05:49:41.607Z,17.17
2022-07-29T05:50:44.049Z,17.18
2022-07-29T05:51:41.568Z,17.36
2022-07-29T05:52:41.554Z,17.41
2022-07-29T05:53:41.537Z,17.51
2022-07-29T05:54:41.514Z,17.63
2022-07-29T05:55:41.491Z,17.71
2022-07-29T05:56:41.477Z,17.78
2022-07-29T05:57:41.453Z,17.81
2022-07-29T05:58:41.467Z,17.91
2022-07-29T05:59:41.454Z,18.02
2022-07-29T06:00:41.416Z,18.13
2022-07-29T06:01:41.495Z,18.17
2022-07-29T06:02:41.515Z,18.21
2022-07-29T06:03:41.381Z,18.24
2022-07-29T06:04:41.377Z,18.28
2022-07-29T06:05:41.314Z,18.19
2022-07-29T06:06:41.307Z,18.17
2022-07-29T06:07:41.287Z,18.09
2022-07-29T06:08:41.288Z,18.17
2022-07-29T06:09:41.242Z,17.99
2022-07-29T06:10:41.227Z,18.02
2022-07-29T06:11:41.214Z,18.12
2022-07-29T06:12:41.186Z,18.13
2022-07-29T06:13:41.172Z,18.02
2022-07-29T06:14:41.168Z,17.97
2022-07-29T06:15:41.240Z,18.00
2022-07-29T06:16:41.208Z,18.17
2022-07-29T06:18:00.095Z,18.07
2022-07-29T06:18:41.084Z,18.09
2022-07-29T06:19:41.076Z,18.15
2022-07-29T06:20:41.047Z,18.17
2022-07-29T06:21:42.163Z,18.24
2022-07-29T06:22:41.009Z,18.19
2022-07-29T06:23:40.992Z,18.33
2022-07-29T06:24:40.980Z,18.28
2022-07-29T06:25:41.009Z,18.33
2022-07-29T06:26:41.037Z,18.25
2022-07-29T06:27:40.992Z,18.25
2022-07-29T06:28:40.969Z,18.24
2022-07-29T06:29:40.965Z,18.33
2022-07-29T06:30:40.922Z,18.34
2022-07-29T06:31:40.859Z,18.22
2022-07-29T06:32:43.224Z,18.24
2022-07-29T06:33:40.835Z,18.09
2022-07-29T06:34:40.801Z,18.19
2022-07-29T06:35:42.366Z,18.28
2022-07-29T06:36:41.111Z,18.47
2022-07-29T06:37:40.751Z,18.47
2022-07-29T06:38:44.856Z,18.64
2022-07-29T06:39:40.743Z,18.77
2022-07-29T06:40:40.710Z,19.08
2022-07-29T06:41:40.687Z,19.18
2022-07-29T06:42:40.664Z,19.38
2022-07-29T06:43:52.477Z,19.57
2022-07-29T06:44:40.627Z,19.66
2022-07-29T06:45:40.647Z,19.69
2022-07-29T06:46:40.683Z,19.95
2022-07-29T06:47:40.580Z,20.05
2022-07-29T06:48:40.659Z,20.21
2022-07-29T06:49:40.551Z,20.46
2022-07-29T06:50:40.532Z,20.59
2022-07-29T06:51:40.522Z,20.81
2022-07-29T06:52:40.516Z,21.01
2022-07-29T06:53:40.481Z,21.29
2022-07-29T06:54:40.470Z,21.35
2022-07-29T06:55:40.445Z,21.63
2022-07-29T06:56:40.599Z,21.81
2022-07-29T06:57:40.421Z,22.10
2022-07-29T06:58:40.400Z,22.35
2022-07-29T06:59:40.384Z,22.49
2022-07-29T07:00:40.368Z,22.64
2022-07-29T07:01:40.441Z,22.71
2022-07-29T07:02:40.407Z,22.80
2022-07-29T07:03:40.331Z,23.05
2022-07-29T07:04:40.311Z,23.05
2022-07-29T07:05:40.301Z,23.11
2022-07-29T07:06:40.287Z,23.23
2022-07-29T07:07:40.261Z,23.32
2022-07-29T07:08:40.249Z,23.29
2022-07-29T07:09:41.016Z,23.29
2022-07-29T07:10:40.217Z,23.34
2022-07-29T07:11:40.210Z,23.27
2022-07-29T07:12:40.188Z,23.24
2022-07-29T07:13:40.218Z,23.23
2022-07-29T07:14:40.165Z,23.34
2022-07-29T07:15:40.313Z,23.68
2022-07-29T07:16:40.181Z,24.10
2022-07-29T07:17:40.149Z,24.42
2022-07-29T07:18:40.128Z,24.63
2022-07-29T07:19:40.127Z,25.09
2022-07-29T07:20:40.076Z,25.64
2022-07-29T07:21:40.085Z,25.59
2022-07-29T07:22:40.050Z,25.71
2022-07-29T07:23:40.037Z,25.47
2022-07-29T07:24:40.032Z,25.31
2022-07-29T07:25:40.028Z,25.47
2022-07-29T07:26:40.034Z,25.84
2022-07-29T07:27:39.981Z,26.32
2022-07-29T07:28:39.975Z,26.89
2022-07-29T07:29:40.023Z,27.14
2022-07-29T07:30:39.942Z,27.11
2022-07-29T07:31:39.987Z,27.10
2022-07-29T07:32:39.907Z,27.35
2022-07-29T07:33:39.906Z,27.16
2022-07-29T07:34:39.891Z,27.74
2022-07-29T07:35:39.893Z,27.80
2022-07-29T07:36:39.939Z,27.88
2022-07-29T07:37:39.857Z,28.29
2022-07-29T07:38:39.842Z,28.32
2022-07-29T07:39:39.825Z,28.35
2022-07-29T07:40:39.817Z,28.06
2022-07-29T07:41:39.818Z,28.01
2022-07-29T07:42:39.804Z,27.99
2022-07-29T07:43:39.779Z,28.17
2022-07-29T07:45:03.788Z,28.47
2022-07-29T07:45:39.776Z,28.54
2022-07-29T07:46:39.768Z,28.95
2022-07-29T07:47:39.734Z,28.77
2022-07-29T07:48:39.785Z,28.40
2022-07-29T07:49:39.718Z,28.56
2022-07-29T07:50:39.738Z,28.63
2022-07-29T07:51:39.689Z,28.80
2022-07-29T07:52:39.677Z,28.82
2022-07-29T07:53:39.676Z,28.73
2022-07-29T07:54:39.667Z,28.28
2022-07-29T07:56:08.223Z,28.29
2022-07-29T07:56:39.634Z,28.82
2022-07-29T07:57:39.630Z,28.97
2022-07-29T07:58:39.744Z,29.22
2022-07-29T07:59:39.611Z,28.73
2022-07-29T08:00:39.602Z,28.32
2022-07-29T08:01:47.899Z,28.04
2022-07-29T08:02:39.685Z,27.94
2022-07-29T08:03:39.650Z,27.73
2022-07-29T08:04:39.547Z,27.67
2022-07-29T08:05:39.540Z,27.71
2022-07-29T08:06:39.519Z,27.43
2022-07-29T08:07:39.514Z,27.53
2022-07-29T08:08:39.502Z,27.38
2022-07-29T08:09:39.488Z,27.58
2022-07-29T08:10:39.478Z,27.89
2022-07-29T08:11:39.482Z,28.25
2022-07-29T08:12:39.485Z,28.41
2022-07-29T08:13:39.678Z,28.09
2022-07-29T08:14:39.444Z,27.89
2022-07-29T08:15:39.438Z,27.70
2022-07-29T08:16:39.495Z,27.54
2022-07-29T08:17:39.412Z,27.21
2022-07-29T08:18:39.430Z,26.73
2022-07-29T08:19:39.392Z,26.43
2022-07-29T08:20:39.381Z,26.35
2022-07-29T08:21:39.367Z,26.02
2022-07-29T08:22:39.359Z,25.84
2022-07-29T08:23:46.027Z,25.64
2022-07-29T08:24:39.339Z,25.49
2022-07-29T08:25:40.121Z,25.39
2022-07-29T08:26:39.319Z,25.54
2022-07-29T08:27:44.132Z,25.67
2022-07-29T08:28:39.295Z,26.18
2022-07-29T08:29:39.347Z,26.43
2022-07-29T08:30:39.271Z,26.40
2022-07-29T08:31:39.277Z,26.54
2022-07-29T08:32:55.624Z,26.76
2022-07-29T08:33:39.240Z,27.13
2022-07-29T08:34:39.232Z,27.43
2022-07-29T08:35:39.227Z,27.69
2022-07-29T08:36:39.204Z,27.91
2022-07-29T08:37:39.197Z,27.91
2022-07-29T08:38:39.188Z,28.01
2022-07-29T08:40:39.326Z,28.87
2022-07-29T08:41:39.155Z,28.95
2022-07-29T08:42:39.142Z,28.68
2022-07-29T08:43:39.167Z,28.66
2022-07-29T08:44:39.133Z,28.53
2022-07-29T08:45:39.226Z,28.47
2022-07-29T08:46:39.106Z,28.26
2022-07-29T08:47:39.091Z,28.46
2022-07-29T08:48:39.145Z,28.97
2022-07-29T08:49:39.070Z,29.65
2022-07-29T08:50:39.069Z,29.99
2022-07-29T08:51:48.617Z,30.18
2022-07-29T08:52:39.038Z,30.54
2022-07-29T08:53:39.059Z,30.54
2022-07-29T08:54:39.020Z,30.37
2022-07-29T08:55:39.018Z,30.19
2022-07-29T08:56:39.001Z,30.27
2022-07-29T08:57:38.997Z,30.52
2022-07-29T08:58:38.986Z,30.31
2022-07-29T08:59:38.988Z,30.31
2022-07-29T09:00:39.086Z,30.18
2022-07-29T09:01:42.770Z,30.23
2022-07-29T09:02:38.977Z,29.94
2022-07-29T09:03:39.015Z,29.87
2022-07-29T09:04:38.934Z,29.44
2022-07-29T09:05:42.033Z,28.90
2022-07-29T09:06:38.924Z,28.85
2022-07-29T09:07:38.911Z,28.63
2022-07-29T09:08:38.968Z,28.87
2022-07-29T09:09:38.907Z,29.34
2022-07-29T09:10:38.960Z,29.87
2022-07-29T09:11:38.900Z,30.02
2022-07-29T09:12:38.899Z,30.33
2022-07-29T09:13:38.921Z,31.01
2022-07-29T09:14:38.912Z,31.42
2022-07-29T09:15:38.925Z,31.39
2022-07-29T09:16:52.735Z,31.48
2022-07-29T09:17:38.872Z,31.87
2022-07-29T09:18:38.814Z,31.67
2022-07-29T09:19:38.803Z,31.53
2022-07-29T09:20:38.834Z,30.83
2022-07-29T09:21:38.863Z,30.54
2022-07-29T09:22:41.824Z,30.27
2022-07-29T09:23:38.770Z,29.97
2022-07-29T09:24:38.771Z,29.71
2022-07-29T09:25:38.754Z,29.79
2022-07-29T09:26:38.743Z,29.43
2022-07-29T09:27:38.754Z,29.23
2022-07-29T09:28:38.734Z,29.15
2022-07-29T09:29:38.802Z,28.97
2022-07-29T09:30:38.713Z,28.84
2022-07-29T09:31:38.767Z,28.75
2022-07-29T09:32:38.698Z,28.65
2022-07-29T09:33:38.690Z,28.62
2022-07-29T09:34:38.685Z,28.58
2022-07-29T09:35:38.676Z,28.65
2022-07-29T09:36:38.666Z,28.80
2022-07-29T09:37:38.660Z,28.90
2022-07-29T09:38:38.644Z,28.87
2022-07-29T09:39:38.640Z,29.28
2022-07-29T09:40:38.631Z,29.56
2022-07-29T09:41:38.622Z,29.77
2022-07-29T09:42:38.615Z,29.97
2022-07-29T09:43:38.617Z,29.99
2022-07-29T09:44:38.599Z,30.24
2022-07-29T09:45:38.592Z,30.24
2022-07-29T09:46:38.621Z,30.11
2022-07-29T09:47:38.577Z,30.31
2022-07-29T09:48:38.617Z,29.77
2022-07-29T09:49:38.583Z,29.70
2022-07-29T09:50:38.579Z,29.72
2022-07-29T09:51:38.921Z,29.79
2022-07-29T09:52:38.534Z,30.21
2022-07-29T09:53:38.525Z,30.94
2022-07-29T09:54:38.514Z,31.02
2022-07-29T09:55:38.502Z,30.43
2022-07-29T09:56:38.508Z,30.36
2022-07-29T09:57:38.500Z,30.24
2022-07-29T09:58:38.498Z,30.75
2022-07-29T09:59:50.186Z,31.04
2022-07-29T10:00:38.541Z,31.18
2022-07-29T10:01:38.507Z,31.20
2022-07-29T10:02:38.450Z,31.54
2022-07-29T10:03:38.505Z,31.84
2022-07-29T10:04:38.438Z,31.70
2022-07-29T10:05:38.418Z,30.91
2022-07-29T10:06:38.413Z,30.59
2022-07-29T10:07:38.408Z,30.57
2022-07-29T10:08:38.409Z,30.21
2022-07-29T10:09:38.417Z,29.87
2022-07-29T10:10:38.428Z,29.57
2022-07-29T10:11:48.189Z,29.44
2022-07-29T10:12:38.369Z,29.65
2022-07-29T10:13:38.357Z,29.79
2022-07-29T10:14:38.350Z,30.31
2022-07-29T10:15:38.341Z,30.40
2022-07-29T10:16:38.407Z,30.40
2022-07-29T10:17:40.515Z,30.83
2022-07-29T10:18:38.336Z,30.52
2022-07-29T10:19:38.306Z,30.37
2022-07-29T10:20:38.305Z,30.61
2022-07-29T10:21:38.296Z,30.80
2022-07-29T10:22:54.244Z,30.54
2022-07-29T10:23:46.101Z,30.18
2022-07-29T10:24:38.288Z,30.09
2022-07-29T10:25:38.282Z,30.29
2022-07-29T10:26:38.256Z,30.36
2022-07-29T10:27:38.261Z,30.76
2022-07-29T10:28:38.237Z,30.64
2022-07-29T10:29:38.244Z,30.08
2022-07-29T10:30:38.233Z,29.66
2022-07-29T10:31:38.295Z,29.62
2022-07-29T10:32:38.213Z,29.93
2022-07-29T10:33:38.200Z,30.38
2022-07-29T10:34:38.214Z,30.72
2022-07-29T10:36:38.199Z,31.27
2022-07-29T10:37:38.179Z,31.48
2022-07-29T10:39:44.367Z,31.12
2022-07-29T10:40:38.159Z,30.83
2022-07-29T10:41:44.339Z,30.99
2022-07-29T10:42:38.146Z,30.80
2022-07-29T10:43:38.135Z,31.15
2022-07-29T10:44:38.136Z,31.15
2022-07-29T10:45:38.134Z,31.11
2022-07-29T10:46:38.210Z,30.86
2022-07-29T10:47:38.116Z,30.67
2022-07-29T10:48:38.142Z,31.12
2022-07-29T10:49:38.155Z,31.23
2022-07-29T10:50:38.096Z,31.53
2022-07-29T10:51:38.091Z,31.58
2022-07-29T10:52:38.145Z,31.48
2022-07-29T10:53:38.076Z,31.30
2022-07-29T10:54:38.071Z,31.23
2022-07-29T10:55:38.080Z,30.78
2022-07-29T10:56:38.058Z,30.34
2022-07-29T10:57:53.489Z,30.46
2022-07-29T10:58:38.058Z,30.57
2022-07-29T10:59:38.039Z,30.71
2022-07-29T11:00:38.036Z,31.12
2022-07-29T11:01:39.153Z,31.54
2022-07-29T11:03:38.060Z,30.46
2022-07-29T11:04:38.010Z,30.26
2022-07-29T11:05:40.697Z,30.29
2022-07-29T11:06:38.016Z,30.61
2022-07-29T11:07:41.577Z,31.04
2022-07-29T11:08:37.986Z,31.35
2022-07-29T11:09:38.547Z,31.67
2022-07-29T11:10:37.989Z,31.58
2022-07-29T11:11:38.104Z,31.26
2022-07-29T11:12:38.758Z,31.01
2022-07-29T11:13:41.350Z,30.86
2022-07-29T11:14:37.958Z,30.69
2022-07-29T11:15:37.952Z,30.78
2022-07-29T11:16:37.961Z,30.81
2022-07-29T11:17:51.994Z,31.09
2022-07-29T11:18:37.941Z,30.87
2022-07-29T11:19:40.169Z,30.83
2022-07-29T11:20:38.113Z,30.93
2022-07-29T11:21:53.696Z,30.78
2022-07-29T11:22:43.158Z,30.62
2022-07-29T11:23:37.926Z,30.78
2022-07-29T11:24:37.903Z,31.21
2022-07-29T11:26:37.886Z,31.18
2022-07-29T11:27:37.887Z,31.04
2022-07-29T11:28:37.879Z,31.15
2022-07-29T11:29:40.096Z,31.33
2022-07-29T11:30:37.868Z,31.54
2022-07-29T11:31:37.871Z,31.65
2022-07-29T11:32:37.857Z,31.73
2022-07-29T11:33:56.311Z,31.72
2022-07-29T11:34:37.851Z,31.40
2022-07-29T11:36:37.838Z,31.40
2022-07-29T11:37:42.550Z,31.35
2022-07-29T11:38:37.854Z,31.05
2022-07-29T11:39:37.863Z,30.81
2022-07-29T11:40:37.817Z,30.11
2022-07-29T11:41:37.824Z,29.90
2022-07-29T11:42:37.832Z,29.75
2022-07-29T11:43:37.807Z,29.82
2022-07-29T11:44:37.801Z,29.90
2022-07-29T11:45:43.924Z,30.07
2022-07-29T11:46:37.785Z,30.36
2022-07-29T11:47:38.241Z,30.49
2022-07-29T11:48:37.820Z,30.68
2022-07-29T11:49:37.765Z,30.84
2022-07-29T11:50:37.775Z,31.23
2022-07-29T11:51:37.759Z,31.75
2022-07-29T11:52:37.751Z,31.87
2022-07-29T11:53:37.745Z,31.62
2022-07-29T11:54:57.487Z,31.96
2022-07-29T11:55:37.746Z,31.99
2022-07-29T11:56:37.750Z,31.99
2022-07-29T11:57:37.726Z,31.98
2022-07-29T11:58:38.025Z,32.14
2022-07-29T11:59:37.720Z,32.43
2022-07-29T12:00:37.730Z,31.92
2022-07-29T12:01:37.728Z,31.85
2022-07-29T12:02:38.261Z,31.61
2022-07-29T12:03:37.752Z,31.72
2022-07-29T12:04:37.711Z,31.98
2022-07-29T12:05:37.705Z,31.77
2022-07-29T12:06:37.712Z,31.38
2022-07-29T12:07:01.291Z,31.39
2022-07-29T12:07:01.661Z,31.26
2022-07-29T12:07:37.803Z,31.53
2022-07-29T12:08:37.708Z,31.53
2022-07-29T12:09:40.353Z,31.80
2022-07-29T12:10:37.742Z,32.02
2022-07-29T12:11:37.691Z,32.02
2022-07-29T12:12:37.697Z,32.03
2022-07-29T12:13:38.147Z,31.67
2022-07-29T12:14:37.730Z,31.42
2022-07-29T12:15:46.231Z,31.21
2022-07-29T12:16:37.737Z,31.23
2022-07-29T12:17:37.691Z,31.04
2022-07-29T12:18:37.693Z,31.17
2022-07-29T12:19:37.692Z,31.26
2022-07-29T12:20:37.699Z,31.18
2022-07-29T12:21:37.686Z,30.68
2022-07-29T12:22:37.684Z,30.09
2022-07-29T12:23:37.682Z,29.90
2022-07-29T12:24:37.679Z,29.87
2022-07-29T12:25:37.676Z,29.77
2022-07-29T12:26:37.676Z,29.55
2022-07-29T12:27:40.613Z,29.38
2022-07-29T12:28:37.664Z,29.29
2022-07-29T12:29:37.653Z,29.20
2022-07-29T12:30:37.678Z,29.23
2022-07-29T12:31:43.897Z,29.34
2022-07-29T12:32:37.677Z,29.60
2022-07-29T12:33:37.639Z,29.99
2022-07-29T12:34:37.633Z,30.34
2022-07-29T12:35:37.625Z,31.15
2022-07-29T12:36:37.624Z,31.43
2022-07-29T12:37:37.619Z,31.68
2022-07-29T12:38:37.612Z,32.14
2022-07-29T12:39:37.600Z,32.43
2022-07-29T12:40:37.597Z,32.51
2022-07-29T12:41:37.594Z,32.05
2022-07-29T12:42:37.596Z,31.53
2022-07-29T12:43:37.590Z,31.31
2022-07-29T12:44:37.587Z,30.86
2022-07-29T12:45:37.583Z,30.68
2022-07-29T12:46:37.631Z,30.36
2022-07-29T12:47:37.587Z,30.14
2022-07-29T12:48:37.618Z,29.77
2022-07-29T12:49:38.101Z,29.60
2022-07-29T12:50:37.560Z,29.45
2022-07-29T12:51:37.642Z,29.60
2022-07-29T12:52:37.543Z,29.55
2022-07-29T12:53:37.538Z,29.52
2022-07-29T12:54:37.543Z,29.49
2022-07-29T12:55:37.534Z,29.28
2022-07-29T12:56:45.328Z,29.15